Time;durP1;ratioP1;P1;durP2;ratioP2;P2;SDS_P1;SDS_P2;PMS_P1;PMS_P2;Temp;Humidity;BMP_temperature;BMP_pressure;BME280_temperature;BME280_humidity;BME280_pressure;Samples;Min_cycle;Max_cycle;Signal;HPM_P1;HPM_P2
2023/10/21 00:01:54;;;;;;;;;;;;;;;18.66;65.77;99260.22;5075204;28;20377;-77
2023/10/21 00:04:21;;;;;;;;;;;;;;;18.65;65.55;99261.28;5075058;28;20344;-76
2023/10/21 00:06:46;;;;;;;;;;;;;;;18.62;65.36;99267.91;5073924;28;20368;-76
2023/10/21 00:09:11;;;;;;;;;;;;;;;18.57;65.86;99267.75;5075002;28;19952;-77
2023/10/21 00:11:37;;;;;;;;;;;;;;;18.54;65.89;99270.88;5073681;28;19998;-75
2023/10/21 00:14:02;;;;;;;;;;;;;;;18.48;65.82;99265.69;5074862;28;19911;-77
2023/10/21 00:16:27;;;;;;;;;;;;;;;18.42;65.66;99265.56;5074869;28;20442;-76
2023/10/21 00:18:52;;;;;;;;;;;;;;;18.36;65.83;99266.50;5074830;28;19912;-77
2023/10/21 00:21:18;;;;;;;;;;;;;;;18.29;65.47;99273.84;5074866;28;20346;-76
2023/10/21 00:23:43;;;;;;;;;;;;;;;18.20;65.63;99269.09;5074786;28;19912;-77
2023/10/21 00:26:08;;;;;;;;;;;;;;;18.11;65.36;99263.28;5074654;28;19919;-76
2023/10/21 00:28:34;;;;;;;;;;;;;;;18.01;65.23;99263.06;5074612;28;19955;-77
2023/10/21 00:31:03;;;;;;;;;;;;;;;17.89;64.45;99262.25;5074443;28;19912;-77
2023/10/21 00:33:28;;;;;;;;;;;;;;;17.78;64.11;99270.00;5074365;28;19920;-76
2023/10/21 00:35:54;;;;;;;;;;;;;;;17.65;64.11;99269.38;5074404;28;19913;-77
2023/10/21 00:38:19;;;;;;;;;;;;;;;17.53;63.59;99271.22;5074446;28;19912;-76
2023/10/21 00:40:51;;;;;;;;;;;;;;;17.39;63.52;99271.44;5074482;28;19920;-78
2023/10/21 00:43:35;;;;;;;;;;;;;;;17.30;63.62;99274.66;5074567;28;20432;-76
2023/10/21 00:46:02;;;;;;;;;;;;;;;17.14;63.89;99281.44;5074553;28;20389;-76
2023/10/21 00:48:28;;;;;;;;;;;;;;;16.98;63.65;99288.19;5074269;28;19916;-77
2023/10/21 00:50:54;;;;;;;;;;;;;;;16.87;64.11;99286.31;5074347;28;19912;-76
2023/10/21 00:53:20;;;;;;;;;;;;;;;16.81;64.08;99288.00;5074133;28;19917;-77
2023/10/21 00:55:45;;;;;;;;;;;;;;;16.71;64.36;99285.06;5074787;28;20315;-76
2023/10/21 00:58:11;;;;;;;;;;;;;;;16.66;64.22;99289.44;5074815;28;19912;-76
2023/10/21 01:00:37;;;;;;;;;;;;;;;16.58;64.21;99290.53;5074168;28;19916;-77
2023/10/21 01:03:02;;;;;;;;;;;;;;;16.52;64.43;99288.75;5073292;28;19913;-76
2023/10/21 01:05:27;;;;;;;;;;;;;;;16.46;64.01;99295.78;5073949;28;19931;-77
2023/10/21 01:07:57;;;;;;;;;;;;;;;16.39;64.24;99295.03;5073969;28;19912;-77
2023/10/21 01:10:23;;;;;;;;;;;;;;;16.33;64.51;99290.56;5073905;28;19912;-76
2023/10/21 01:12:48;;;;;;;;;;;;;;;16.27;64.17;99293.31;5073871;28;19912;-77
2023/10/21 01:15:13;;;;;;;;;;;;;;;16.26;64.40;99297.00;5074056;28;19912;-76
2023/10/21 01:17:39;;;;;;;;;;;;;;;16.21;64.60;99287.81;5073791;28;20301;-76
2023/10/21 01:20:06;;;;;;;;;;;;;;;16.20;64.25;99293.38;5073844;28;19969;-76
2023/10/21 01:22:31;;;;;;;;;;;;;;;16.20;64.31;99296.03;5073746;28;19912;-77
2023/10/21 01:24:56;;;;;;;;;;;;;;;16.17;63.98;99301.81;5073526;28;19912;-76
2023/10/21 01:27:23;;;;;;;;;;;;;;;16.07;64.13;99301.50;5073494;28;19912;-77
2023/10/21 01:29:48;;;;;;;;;;;;;;;16.01;64.13;99313.84;5073605;28;19916;-77
2023/10/21 01:32:13;;;;;;;;;;;;;;;15.95;63.81;99301.41;5072238;28;19912;-76
2023/10/21 01:34:38;;;;;;;;;;;;;;;15.94;63.94;99301.63;5073627;28;19995;-76
2023/10/21 01:37:04;;;;;;;;;;;;;;;15.83;63.71;99300.47;5073416;28;19912;-77
2023/10/21 01:39:29;;;;;;;;;;;;;;;15.82;63.53;99306.84;5073245;28;19917;-76
2023/10/21 01:41:54;;;;;;;;;;;;;;;15.80;63.59;99299.06;5073386;28;19912;-75
2023/10/21 01:44:19;;;;;;;;;;;;;;;15.80;63.71;99301.72;5073297;28;20308;-75
2023/10/21 01:46:45;;;;;;;;;;;;;;;15.81;63.68;99298.03;5071994;28;19912;-76
2023/10/21 01:49:10;;;;;;;;;;;;;;;15.75;63.44;99304.22;5071875;28;19916;-76
2023/10/21 01:51:36;;;;;;;;;;;;;;;15.74;63.37;99296.47;5073157;28;19920;-76
2023/10/21 01:54:01;;;;;;;;;;;;;;;15.72;63.48;99306.50;5071622;28;19920;-75
2023/10/21 01:56:26;;;;;;;;;;;;;;;15.67;63.29;99304.50;5071701;28;19989;-75
2023/10/21 01:58:51;;;;;;;;;;;;;;;15.67;63.25;99317.81;5071774;28;19916;-76
2023/10/21 02:01:17;;;;;;;;;;;;;;;15.70;63.33;99312.06;5072901;28;19993;-76
2023/10/21 02:03:42;;;;;;;;;;;;;;;15.68;63.02;99306.13;5073081;28;19913;-77
2023/10/21 02:06:07;;;;;;;;;;;;;;;15.64;63.01;99302.28;5072918;28;19916;-77
2023/10/21 02:08:33;;;;;;;;;;;;;;;15.62;62.91;99304.34;5071707;28;20302;-77
2023/10/21 02:10:58;;;;;;;;;;;;;;;15.57;63.27;99298.78;5071343;28;19952;-77
2023/10/21 02:13:24;;;;;;;;;;;;;;;15.56;63.46;99303.28;5072729;28;19916;-76
2023/10/21 02:15:50;;;;;;;;;;;;;;;15.54;62.85;99302.69;5072439;28;19920;-76
2023/10/21 02:18:16;;;;;;;;;;;;;;;15.50;63.08;99296.16;5072616;28;19919;-76
2023/10/21 02:20:41;;;;;;;;;;;;;;;15.49;63.50;99296.38;5071292;28;20003;-76
2023/10/21 02:23:06;;;;;;;;;;;;;;;15.44;63.12;99289.06;5072901;28;19966;-76
2023/10/21 02:25:32;;;;;;;;;;;;;;;15.44;63.36;99283.72;5072653;28;20380;-76
2023/10/21 02:27:58;;;;;;;;;;;;;;;15.41;63.49;99286.00;5072734;28;20408;-76
2023/10/21 02:30:23;;;;;;;;;;;;;;;15.43;63.83;99290.09;5072445;28;19912;-76
2023/10/21 02:32:48;;;;;;;;;;;;;;;15.45;64.25;99297.84;5072385;28;19916;-76
2023/10/21 02:35:14;;;;;;;;;;;;;;;15.54;64.87;99297.38;5071201;28;19920;-76
2023/10/21 02:37:40;;;;;;;;;;;;;;;15.64;65.01;99296.13;5072304;28;19913;-76
2023/10/21 02:40:06;;;;;;;;;;;;;;;15.72;65.25;99291.34;5072371;28;20293;-76
2023/10/21 02:42:31;;;;;;;;;;;;;;;15.90;66.26;99298.56;5072391;28;20015;-76
2023/10/21 02:44:57;;;;;;;;;;;;;;;16.05;66.85;99293.72;5072464;28;19942;-77
2023/10/21 02:47:22;;;;;;;;;;;;;;;16.25;65.73;99298.84;5072402;28;19999;-76
2023/10/21 02:49:47;;;;;;;;;;;;;;;16.50;68.11;99301.47;5072117;28;19995;-76
2023/10/21 02:52:13;;;;;;;;;;;;;;;16.75;68.81;99304.09;5070759;28;19963;-76
2023/10/21 02:54:38;;;;;;;;;;;;;;;16.94;67.86;99304.88;5072018;28;19908;-77
2023/10/21 02:57:04;;;;;;;;;;;;;;;17.09;68.03;99311.47;5072159;28;19966;-76
2023/10/21 02:59:30;;;;;;;;;;;;;;;17.16;67.69;99314.06;5072350;28;20300;-76
2023/10/21 03:01:55;;;;;;;;;;;;;;;17.22;67.68;99317.66;5071855;28;20389;-77
2023/10/21 03:04:21;;;;;;;;;;;;;;;17.25;67.48;99320.69;5071715;28;20007;-77
2023/10/21 03:06:46;;;;;;;;;;;;;;;17.29;67.36;99321.88;5071864;28;19917;-76
2023/10/21 03:09:11;;;;;;;;;;;;;;;17.31;67.22;99325.13;5071834;28;19959;-76
2023/10/21 03:11:36;;;;;;;;;;;;;;;17.34;66.46;99326.53;5071706;28;19965;-76
2023/10/21 03:14:02;;;;;;;;;;;;;;;17.37;67.30;99331.41;5071711;28;20498;-76
2023/10/21 03:16:27;;;;;;;;;;;;;;;17.39;66.90;99327.47;5070550;28;19917;-76
2023/10/21 03:18:52;;;;;;;;;;;;;;;17.43;67.45;99325.97;5071981;28;19912;-77
2023/10/21 03:21:17;;;;;;;;;;;;;;;17.52;66.19;99323.78;5071729;28;19927;-76
2023/10/21 03:23:43;;;;;;;;;;;;;;;17.60;66.34;99326.13;5071856;28;20013;-76
2023/10/21 03:26:09;;;;;;;;;;;;;;;17.65;67.34;99326.25;5074531;28;20392;-76
2023/10/21 03:28:34;;;;;;;;;;;;;;;17.69;65.23;99327.47;5078414;28;19918;-76
2023/10/21 03:31:00;;;;;;;;;;;;;;;17.75;65.97;99328.41;5078304;28;19912;-76
2023/10/21 03:33:27;;;;;;;;;;;;;;;17.82;66.75;99336.31;5077113;28;19912;-77
2023/10/21 03:35:52;;;;;;;;;;;;;;;17.85;66.78;99333.19;5078087;28;20438;-76
2023/10/21 03:38:18;;;;;;;;;;;;;;;17.84;66.70;99340.41;5078022;28;19917;-76
2023/10/21 03:40:43;;;;;;;;;;;;;;;17.77;67.48;99335.13;5078019;28;19974;-76
2023/10/21 03:43:08;;;;;;;;;;;;;;;17.71;67.21;99335.25;5078045;28;20411;-75
2023/10/21 03:45:35;;;;;;;;;;;;;;;17.62;66.10;99331.25;5078162;28;19969;-75
2023/10/21 03:48:01;;;;;;;;;;;;;;;17.52;65.88;99331.81;5078125;28;19913;-77
2023/10/21 03:50:26;;;;;;;;;;;;;;;17.41;65.19;99338.72;5078081;28;20350;-77
2023/10/21 03:52:53;;;;;;;;;;;;;;;17.33;64.95;99338.25;5078116;28;19913;-76
2023/10/21 03:55:18;;;;;;;;;;;;;;;17.19;64.77;99342.13;5077994;28;19920;-76
2023/10/21 03:57:43;;;;;;;;;;;;;;;17.05;64.89;99331.59;5078455;28;19919;-76
2023/10/21 04:00:09;;;;;;;;;;;;;;;16.97;65.34;99337.25;5078067;28;20003;-77
2023/10/21 04:02:34;;;;;;;;;;;;;;;16.91;65.59;99340.81;5078046;28;20311;-77
2023/10/21 04:05:00;;;;;;;;;;;;;;;16.85;64.90;99344.38;5077964;28;20457;-76
2023/10/21 04:07:25;;;;;;;;;;;;;;;16.77;65.07;99337.50;5078111;28;19921;-77
2023/10/21 04:09:50;;;;;;;;;;;;;;;16.68;64.80;99346.00;5077878;28;19963;-77
2023/10/21 04:12:15;;;;;;;;;;;;;;;16.58;65.09;99343.00;5077694;28;19909;-76
2023/10/21 04:14:41;;;;;;;;;;;;;;;16.49;65.19;99340.66;5077870;28;20454;-76
2023/10/21 04:17:06;;;;;;;;;;;;;;;16.48;65.22;99341.69;5078028;28;19915;-76
2023/10/21 04:19:31;;;;;;;;;;;;;;;16.43;65.01;99340.72;5077840;28;19924;-76
2023/10/21 04:21:58;;;;;;;;;;;;;;;16.37;64.97;99345.06;5076578;28;19951;-77
2023/10/21 04:24:23;;;;;;;;;;;;;;;16.29;64.96;99345.31;5078128;28;19962;-76
2023/10/21 04:26:50;;;;;;;;;;;;;;;16.23;65.13;99350.72;5077878;28;19917;-77
2023/10/21 04:29:16;;;;;;;;;;;;;;;16.16;64.86;99356.09;5079791;28;19905;-77
2023/10/21 04:31:41;;;;;;;;;;;;;;;16.07;64.88;99355.56;5079533;28;20390;-76
2023/10/21 04:34:06;;;;;;;;;;;;;;;15.98;65.03;99366.72;5077890;28;19912;-76
2023/10/21 04:36:31;;;;;;;;;;;;;;;15.83;64.82;99367.84;5076704;28;19912;-77
2023/10/21 04:38:57;;;;;;;;;;;;;;;15.81;64.72;99366.44;5073624;28;20351;-75
2023/10/21 04:41:22;;;;;;;;;;;;;;;15.78;64.57;99367.69;5074669;28;19923;-77
2023/10/21 04:43:47;;;;;;;;;;;;;;;15.71;64.83;99374.09;5074669;28;19995;-75
2023/10/21 04:46:13;;;;;;;;;;;;;;;15.69;64.61;99365.50;5073280;28;20379;-75
2023/10/21 04:48:38;;;;;;;;;;;;;;;15.69;64.36;99368.16;5074416;28;20009;-77
2023/10/21 04:51:04;;;;;;;;;;;;;;;15.69;64.36;99370.81;5074316;28;19913;-77
2023/10/21 04:53:30;;;;;;;;;;;;;;;15.68;64.23;99370.00;5073040;28;19999;-76
2023/10/21 04:55:55;;;;;;;;;;;;;;;15.69;64.48;99390.28;5074438;28;19912;-77
2023/10/21 04:58:20;;;;;;;;;;;;;;;15.66;64.18;99389.88;5072966;28;19912;-76
2023/10/21 05:00:45;;;;;;;;;;;;;;;15.60;64.00;99391.53;5074267;28;19952;-76
2023/10/21 05:03:11;;;;;;;;;;;;;;;15.52;63.92;99394.41;5074263;28;19912;-77
2023/10/21 05:05:37;;;;;;;;;;;;;;;15.47;64.24;99387.06;5074014;28;19960;-76
2023/10/21 05:08:03;;;;;;;;;;;;;;;15.38;64.20;99393.66;5074114;28;19912;-77
2023/10/21 05:10:28;;;;;;;;;;;;;;;15.31;64.42;99384.91;5074088;28;19958;-77
2023/10/21 05:12:55;;;;;;;;;;;;;;;15.27;64.74;99383.69;5073949;28;19946;-77
2023/10/21 05:15:20;;;;;;;;;;;;;;;15.28;64.82;99388.00;5073966;28;20415;-76
2023/10/21 05:17:45;;;;;;;;;;;;;;;15.30;64.70;99391.25;5074303;28;19908;-77
2023/10/21 05:20:11;;;;;;;;;;;;;;;15.32;64.28;99401.69;5073811;28;20003;-76
2023/10/21 05:22:37;;;;;;;;;;;;;;;15.32;64.21;99396.34;5073875;28;19912;-76
2023/10/21 05:25:02;;;;;;;;;;;;;;;15.26;64.79;99404.16;5072618;28;19912;-77
2023/10/21 05:27:27;;;;;;;;;;;;;;;15.29;64.68;99396.78;5073874;28;19930;-77
2023/10/21 05:29:53;;;;;;;;;;;;;;;15.30;64.78;99395.75;5073734;28;19935;-76
2023/10/21 05:32:18;;;;;;;;;;;;;;;15.29;64.59;99407.44;5073577;28;19947;-76
2023/10/21 05:34:43;;;;;;;;;;;;;;;15.33;64.13;99405.97;5073541;28;20301;-77
2023/10/21 05:37:08;;;;;;;;;;;;;;;15.37;64.29;99408.00;5073389;28;20003;-77
2023/10/21 05:39:34;;;;;;;;;;;;;;;15.42;64.30;99415.34;5073253;28;19917;-77
2023/10/21 05:41:59;;;;;;;;;;;;;;;15.42;64.09;99418.00;5073333;28;19969;-76
2023/10/21 05:44:24;;;;;;;;;;;;;;;15.42;63.86;99410.00;5073490;28;19998;-76
2023/10/21 05:46:50;;;;;;;;;;;;;;;15.41;64.26;99419.03;5073605;28;20452;-76
2023/10/21 05:49:15;;;;;;;;;;;;;;;15.40;64.38;99426.19;5071927;28;20419;-77
2023/10/21 05:51:40;;;;;;;;;;;;;;;15.41;64.23;99427.81;5073363;28;19912;-77
2023/10/21 05:54:05;;;;;;;;;;;;;;;15.45;63.88;99434.34;5073097;28;20003;-76
2023/10/21 05:56:31;;;;;;;;;;;;;;;15.44;63.89;99421.25;5073396;28;19913;-76
2023/10/21 05:58:56;;;;;;;;;;;;;;;15.43;64.30;99435.59;5073381;28;20388;-76
2023/10/21 06:01:21;;;;;;;;;;;;;;;15.40;64.79;99425.38;5073037;28;20007;-76
2023/10/21 06:03:47;;;;;;;;;;;;;;;15.41;64.64;99437.66;5072901;28;19913;-77
2023/10/21 06:06:12;;;;;;;;;;;;;;;15.42;64.44;99441.94;5071774;28;19912;-77
2023/10/21 06:08:37;;;;;;;;;;;;;;;15.49;64.77;99446.22;5072848;28;19912;-77
2023/10/21 06:11:03;;;;;;;;;;;;;;;15.55;64.31;99456.00;5072921;28;20003;-76
2023/10/21 06:13:28;;;;;;;;;;;;;;;15.62;64.58;99452.56;5072862;28;19912;-76
2023/10/21 06:15:53;;;;;;;;;;;;;;;15.66;64.93;99451.09;5071289;28;20365;-76
2023/10/21 06:18:20;;;;;;;;;;;;;;;15.72;64.43;99452.91;5072446;28;19969;-76
2023/10/21 06:20:46;;;;;;;;;;;;;;;15.76;64.99;99454.94;5071317;28;19916;-77
2023/10/21 06:23:11;;;;;;;;;;;;;;;15.82;64.55;99451.41;5072544;28;19913;-76
2023/10/21 06:25:36;;;;;;;;;;;;;;;15.91;64.93;99462.63;5072362;28;20007;-76
2023/10/21 06:28:01;;;;;;;;;;;;;;;16.01;64.48;99468.28;5072391;28;20435;-76
2023/10/21 06:30:27;;;;;;;;;;;;;;;16.04;66.41;99472.38;5072745;28;19915;-76
2023/10/21 06:32:52;;;;;;;;;;;;;;;16.04;66.73;99472.38;5071166;28;19995;-76
2023/10/21 06:35:17;;;;;;;;;;;;;;;16.08;66.33;99474.38;5072414;28;20003;-77
2023/10/21 06:37:43;;;;;;;;;;;;;;;16.16;66.27;99481.31;5072141;28;19909;-76
2023/10/21 06:40:08;;;;;;;;;;;;;;;16.23;66.86;99471.41;5072191;28;19916;-76
2023/10/21 06:42:33;;;;;;;;;;;;;;;16.29;66.40;99483.06;5072000;28;20312;-76
2023/10/21 06:44:59;;;;;;;;;;;;;;;16.35;66.11;99484.84;5072055;28;20320;-76
2023/10/21 06:47:24;;;;;;;;;;;;;;;16.34;67.49;99486.69;5072202;28;19916;-77
2023/10/21 06:49:50;;;;;;;;;;;;;;;16.39;65.97;99491.41;5071962;28;20409;-76
2023/10/21 06:52:17;;;;;;;;;;;;;;;16.45;65.79;99485.22;5071965;28;19913;-74
2023/10/21 06:54:43;;;;;;;;;;;;;;;16.51;66.10;99489.66;5071974;28;19965;-75
2023/10/21 06:57:08;;;;;;;;;;;;;;;16.57;65.48;99487.97;5071942;28;20003;-75
2023/10/21 06:59:33;;;;;;;;;;;;;;;16.61;65.34;99494.50;5070377;28;19917;-76
2023/10/21 07:01:59;;;;;;;;;;;;;;;16.64;65.53;99489.56;5071194;28;19912;-76
2023/10/21 07:04:25;;;;;;;;;;;;;;;16.67;65.84;99491.00;5071704;28;20400;-75
2023/10/21 07:06:50;;;;;;;;;;;;;;;16.70;65.42;99486.03;5071899;28;20359;-75
2023/10/21 07:09:16;;;;;;;;;;;;;;;16.76;65.44;99487.03;5071758;28;19916;-76
2023/10/21 07:11:41;;;;;;;;;;;;;;;16.83;65.49;99490.44;5071603;28;19963;-76
2023/10/21 07:14:07;;;;;;;;;;;;;;;16.93;65.03;99487.28;5071501;28;19955;-77
2023/10/21 07:16:32;;;;;;;;;;;;;;;17.02;65.53;99496.63;5071468;28;20404;-76
2023/10/21 07:18:57;;;;;;;;;;;;;;;17.07;65.11;99489.56;5071511;28;19916;-76
2023/10/21 07:21:24;;;;;;;;;;;;;;;17.14;65.06;99492.22;5071400;28;19940;-76
2023/10/21 07:23:49;;;;;;;;;;;;;;;17.20;64.90;99487.84;5071477;28;20385;-76
2023/10/21 07:26:14;;;;;;;;;;;;;;;17.27;64.72;99488.56;5071540;28;19920;-76
2023/10/21 07:28:40;;;;;;;;;;;;;;;17.35;64.53;99491.75;5071654;28;19912;-76
2023/10/21 07:31:05;;;;;;;;;;;;;;;17.44;64.65;99494.94;5071704;28;20438;-76
2023/10/21 07:33:30;;;;;;;;;;;;;;;17.52;65.02;99497.31;5071590;28;19912;-76
2023/10/21 07:35:56;;;;;;;;;;;;;;;17.58;64.36;99498.25;5071768;28;20371;-76
2023/10/21 07:38:21;;;;;;;;;;;;;;;17.66;64.39;99498.81;5071766;28;19997;-76
2023/10/21 07:40:47;;;;;;;;;;;;;;;17.74;64.34;99501.16;5071664;28;20289;-75
2023/10/21 07:43:13;;;;;;;;;;;;;;;17.82;64.23;99497.34;5070427;28;19913;-74
2023/10/21 07:45:40;;;;;;;;;;;;;;;17.88;63.95;99496.47;5071629;28;19934;-75
2023/10/21 07:48:07;;;;;;;;;;;;;;;17.94;64.27;99497.44;5071451;28;20380;-76
2023/10/21 07:50:32;;;;;;;;;;;;;;;18.01;63.79;99501.66;5071608;28;19912;-75
2023/10/21 07:52:58;;;;;;;;;;;;;;;18.08;63.42;99496.19;5071650;28;19942;-75
2023/10/21 07:55:23;;;;;;;;;;;;;;;18.14;63.49;99492.63;5071448;28;19913;-76
2023/10/21 07:57:48;;;;;;;;;;;;;;;18.20;63.44;99481.00;5071427;28;19917;-75
2023/10/21 08:00:14;;;;;;;;;;;;;;;18.29;62.97;99479.63;5071258;28;19970;-74
2023/10/21 08:02:42;;;;;;;;;;;;;;;18.37;63.35;99486.50;5071131;28;20427;-74
2023/10/21 08:05:08;;;;;;;;;;;;;;;18.43;63.42;99489.06;5071175;28;19920;-73
2023/10/21 08:07:33;;;;;;;;;;;;;;;18.50;62.83;99477.47;5071855;28;20015;-76
2023/10/21 08:09:59;;;;;;;;;;;;;;;18.57;62.65;99476.31;5071380;28;19920;-77
2023/10/21 08:12:24;;;;;;;;;;;;;;;18.65;62.45;99475.22;5073049;28;19920;-77
2023/10/21 08:14:50;;;;;;;;;;;;;;;18.73;62.16;99480.22;5075158;28;19909;-75
2023/10/21 08:17:15;;;;;;;;;;;;;;;18.82;61.95;99475.31;5074971;28;19919;-76
2023/10/21 08:19:40;;;;;;;;;;;;;;;18.87;61.84;99481.59;5075089;28;20339;-77
2023/10/21 08:22:06;;;;;;;;;;;;;;;18.98;61.52;99479.97;5073880;28;19917;-76
2023/10/21 08:24:31;;;;;;;;;;;;;;;19.06;61.76;99468.91;5073672;28;19995;-76
2023/10/21 08:26:57;;;;;;;;;;;;;;;19.15;61.25;99466.69;5074919;28;19916;-76
2023/10/21 08:29:22;;;;;;;;;;;;;;;19.23;61.25;99461.78;5075391;28;19908;-77
2023/10/21 08:31:47;;;;;;;;;;;;;;;19.32;60.75;99460.38;5074496;28;20445;-77
2023/10/21 08:34:13;;;;;;;;;;;;;;;19.40;61.24;99453.84;5075573;28;19913;-77
2023/10/21 08:36:39;;;;;;;;;;;;;;;19.48;60.97;99453.47;5075846;28;19916;-77
2023/10/21 08:39:07;;;;;;;;;;;;;;;19.58;60.23;99452.88;5074420;28;19913;-77
2023/10/21 08:41:35;;;;;;;;;;;;;;;19.68;60.41;99451.22;5074418;28;19923;-77
2023/10/21 08:44:00;;;;;;;;;;;;;;;19.78;60.59;99444.41;5074565;28;20457;-77
2023/10/21 08:46:26;;;;;;;;;;;;;;;19.86;59.98;99444.03;5074555;28;19917;-76
2023/10/21 08:48:52;;;;;;;;;;;;;;;19.95;60.19;99446.06;5074534;28;19919;-76
2023/10/21 08:51:20;;;;;;;;;;;;;;;20.03;59.76;99439.50;5074954;28;19958;-77
2023/10/21 08:53:46;;;;;;;;;;;;;;;20.12;59.70;99440.75;5073440;28;19913;-77
2023/10/21 08:56:12;;;;;;;;;;;;;;;20.21;59.73;99435.81;5074416;28;19952;-76
2023/10/21 08:58:38;;;;;;;;;;;;;;;20.31;59.41;99434.09;5074253;28;20013;-76
2023/10/21 09:01:03;;;;;;;;;;;;;;;20.41;59.32;99440.72;5074079;28;20429;-75
2023/10/21 09:03:29;;;;;;;;;;;;;;;20.51;59.25;99436.31;5073990;28;19924;-77
2023/10/21 09:06:05;;;;;;;;;;;;;;;20.61;58.85;99430.28;5072870;28;19921;-76
2023/10/21 09:08:37;;;;;;;;;;;;;;;20.73;58.45;99430.19;5073916;28;19919;-75
2023/10/21 09:11:08;;;;;;;;;;;;;;;20.83;58.74;99422.31;5073956;28;19912;-75
2023/10/21 09:13:35;;;;;;;;;;;;;;;20.93;58.41;99417.88;5073896;28;19919;-75
2023/10/21 09:16:01;;;;;;;;;;;;;;;21.05;58.21;99408.91;5073864;28;20401;-76
2023/10/21 09:18:26;;;;;;;;;;;;;;;21.15;57.98;99409.03;5073683;28;19939;-77
2023/10/21 09:20:51;;;;;;;;;;;;;;;21.26;57.67;99413.47;5073761;28;19916;-75
2023/10/21 09:23:17;;;;;;;;;;;;;;;21.39;57.66;99406.91;5073534;28;19969;-77
2023/10/21 09:25:49;;;;;;;;;;;;;;;21.50;57.37;99403.28;5073579;28;19912;-77
2023/10/21 09:28:22;;;;;;;;;;;;;;;21.65;57.31;99400.78;5073734;28;19912;-77
2023/10/21 09:31:01;;;;;;;;;;;;;;;21.77;57.23;99389.88;5073604;28;20305;-75
2023/10/21 09:33:27;;;;;;;;;;;;;;;21.92;56.54;99391.88;5073524;28;19966;-76
2023/10/21 09:36:00;;;;;;;;;;;;;;;22.05;56.47;99389.59;5073750;28;19912;-75
2023/10/21 09:38:26;;;;;;;;;;;;;;;22.20;56.51;99394.28;5073444;28;19969;-74
2023/10/21 09:40:51;;;;;;;;;;;;;;;22.33;55.60;99385.00;5073624;28;19921;-75
2023/10/21 09:43:17;;;;;;;;;;;;;;;22.44;55.85;99379.44;5073667;28;19912;-76
2023/10/21 09:45:43;;;;;;;;;;;;;;;22.58;55.47;99384.34;5073435;28;19916;-76
2023/10/21 09:48:10;;;;;;;;;;;;;;;22.69;55.41;99375.25;5073353;28;19954;-76
2023/10/21 09:50:37;;;;;;;;;;;;;;;22.81;54.81;99368.63;5073380;28;20026;-76
2023/10/21 09:53:10;;;;;;;;;;;;;;;22.93;54.99;99376.47;5073552;28;19913;-76
2023/10/21 09:55:36;;;;;;;;;;;;;;;23.04;53.94;99361.22;5071002;28;20361;-74
2023/10/21 09:58:02;;;;;;;;;;;;;;;23.17;53.68;99365.28;5074495;28;19917;-76
2023/10/21 10:00:28;;;;;;;;;;;;;;;23.30;53.50;99362.09;5074217;28;19916;-76
2023/10/21 10:02:54;;;;;;;;;;;;;;;23.40;52.50;99362.94;5072915;28;20320;-75
2023/10/21 10:05:20;;;;;;;;;;;;;;;23.52;53.04;99354.59;5072832;28;19921;-76
2023/10/21 10:07:47;;;;;;;;;;;;;;;23.62;52.81;99353.81;5073096;28;19995;-75
2023/10/21 10:10:13;;;;;;;;;;;;;;;23.71;52.65;99350.34;5072920;28;19971;-75
2023/10/21 10:12:56;;;;;;;;;;;;;;;23.82;52.29;99351.19;5072862;28;19909;-76
2023/10/21 10:15:27;;;;;;;;;;;;;;;23.92;52.00;99343.09;5072752;28;19961;-77
2023/10/21 10:17:53;;;;;;;;;;;;;;;24.01;51.11;99340.66;5073055;28;19913;-75
2023/10/21 10:20:19;;;;;;;;;;;;;;;24.08;51.44;99331.22;5072658;28;19974;-76
2023/10/21 10:22:47;;;;;;;;;;;;;;;24.19;51.94;99337.41;5072662;28;19916;-76
2023/10/21 10:25:15;;;;;;;;;;;;;;;24.28;51.60;99330.41;5071196;28;19920;-76
2023/10/21 10:27:41;;;;;;;;;;;;;;;24.36;50.81;99329.84;5072718;28;20473;-76
2023/10/21 10:30:21;;;;;;;;;;;;;;;24.44;51.61;99328.47;5072695;28;19916;-76
2023/10/21 10:32:50;;;;;;;;;;;;;;;24.53;50.60;99323.34;5071320;28;19960;-76
2023/10/21 10:35:29;;;;;;;;;;;;;;;24.61;49.94;99330.88;5071717;28;19913;-76
2023/10/21 10:37:55;;;;;;;;;;;;;;;24.71;49.32;99336.25;5072468;28;19913;-75
2023/10/21 10:40:30;;;;;;;;;;;;;;;24.81;49.17;99321.91;5072357;28;20316;-75
2023/10/21 10:42:56;;;;;;;;;;;;;;;24.90;49.88;99321.03;5072312;28;19913;-75
2023/10/21 10:45:21;;;;;;;;;;;;;;;24.98;48.28;99314.28;5072390;28;20416;-76
2023/10/21 10:47:47;;;;;;;;;;;;;;;25.08;49.25;99322.31;5072489;28;20354;-76
2023/10/21 10:50:19;;;;;;;;;;;;;;;25.16;49.43;99305.53;5072435;28;19920;-75
2023/10/21 10:52:46;;;;;;;;;;;;;;;25.26;49.44;99312.78;5072544;28;19919;-76
2023/10/21 10:55:12;;;;;;;;;;;;;;;25.34;48.86;99301.41;5072248;28;19912;-76
2023/10/21 10:57:37;;;;;;;;;;;;;;;25.42;48.22;99302.69;5072574;28;19919;-76
2023/10/21 11:00:03;;;;;;;;;;;;;;;25.49;48.78;99304.00;5072291;28;20030;-76
2023/10/21 11:02:40;;;;;;;;;;;;;;;25.54;48.10;99303.16;5072345;28;19959;-76
2023/10/21 11:05:06;;;;;;;;;;;;;;;25.56;47.75;99299.06;5072306;28;19921;-76
2023/10/21 11:07:31;;;;;;;;;;;;;;;25.61;48.17;99295.53;5070949;28;19912;-76
2023/10/21 11:10:01;;;;;;;;;;;;;;;25.61;48.54;99295.53;5072360;28;19963;-76
2023/10/21 11:12:27;;;;;;;;;;;;;;;25.61;47.94;99288.22;5072636;28;19913;-76
2023/10/21 11:14:52;;;;;;;;;;;;;;;25.60;46.02;99283.91;5072057;28;19912;-76
2023/10/21 11:17:18;;;;;;;;;;;;;;;25.62;47.30;99283.63;5072553;28;19999;-76
2023/10/21 11:19:43;;;;;;;;;;;;;;;25.60;48.36;99277.69;5072264;28;20331;-76
2023/10/21 11:22:28;;;;;;;;;;;;;;;25.57;47.52;99272.84;5071992;28;19920;-76
2023/10/21 11:24:53;;;;;;;;;;;;;;;25.54;47.02;99278.81;5071748;28;20477;-76
2023/10/21 11:27:18;;;;;;;;;;;;;;;25.50;47.75;99272.34;5070569;28;19975;-76
2023/10/21 11:29:44;;;;;;;;;;;;;;;25.46;47.74;99274.00;5071851;28;19919;-77
2023/10/21 11:32:13;;;;;;;;;;;;;;;25.42;48.22;99275.66;5071684;28;20015;-76
2023/10/21 11:34:42;;;;;;;;;;;;;;;25.37;46.94;99273.00;5071696;28;19916;-76
2023/10/21 11:37:09;;;;;;;;;;;;;;;25.32;46.65;99260.34;5070302;28;19916;-76
2023/10/21 11:39:34;;;;;;;;;;;;;;;25.27;47.35;99263.06;5071482;28;19920;-75
2023/10/21 11:41:59;;;;;;;;;;;;;;;25.23;46.63;99262.00;5070154;28;19912;-74
2023/10/21 11:44:26;;;;;;;;;;;;;;;25.17;48.51;99253.13;5071487;28;19916;-77
2023/10/21 11:46:55;;;;;;;;;;;;;;;25.14;48.40;99250.16;5072294;28;19998;-76
2023/10/21 11:49:23;;;;;;;;;;;;;;;25.10;48.80;99258.03;5075568;28;19920;-77
2023/10/21 11:51:49;;;;;;;;;;;;;;;25.12;47.56;99249.63;5075843;28;20007;-77
2023/10/21 11:54:33;;;;;;;;;;;;;;;25.12;47.76;99260.44;5075489;28;19912;-76
2023/10/21 12:08:18;;;;;;;;;;;;;;;25.37;47.41;99251.38;5075051;28;19965;-76
2023/10/21 12:36:41;;;;;;;;;;;;;;;26.36;40.70;99241.84;5074786;28;20308;-76
2023/10/21 12:41:42;;;;;;;;;;;;;;;26.49;38.92;99243.84;5074504;28;19921;-75
2023/10/21 12:44:18;;;;;;;;;;;;;;;26.58;39.28;99239.38;5074697;28;20341;-76
2023/10/21 12:46:44;;;;;;;;;;;;;;;26.57;40.66;99226.94;5073458;28;19913;-76
2023/10/21 12:49:16;;;;;;;;;;;;;;;26.58;41.46;99238.59;5074559;28;19920;-75
2023/10/21 12:51:41;;;;;;;;;;;;;;;26.64;40.51;99236.63;5074884;28;19913;-74
2023/10/21 12:54:10;;;;;;;;;;;;;;;26.66;39.69;99239.84;5074454;28;20006;-75
2023/10/21 12:56:36;;;;;;;;;;;;;;;26.67;40.51;99230.63;5074618;28;19912;-77
2023/10/21 12:59:01;;;;;;;;;;;;;;;26.67;40.12;99244.16;5073049;28;19920;-76
2023/10/21 13:01:28;;;;;;;;;;;;;;;26.70;39.56;99238.97;5074245;28;19916;-77
2023/10/21 13:03:56;;;;;;;;;;;;;;;26.73;39.86;99241.09;5072830;28;20320;-77
2023/10/21 13:06:21;;;;;;;;;;;;;;;26.78;37.85;99232.13;5072987;28;20416;-75
2023/10/21 13:08:46;;;;;;;;;;;;;;;26.79;39.23;99239.16;5073038;28;19995;-76
2023/10/21 13:11:14;;;;;;;;;;;;;;;26.75;40.09;99241.59;5072982;28;19955;-75
2023/10/21 13:13:39;;;;;;;;;;;;;;;26.72;39.48;99238.66;5074483;28;19919;-75
2023/10/21 13:16:05;;;;;;;;;;;;;;;26.71;40.17;99229.75;5073286;28;20367;-76
2023/10/21 13:18:31;;;;;;;;;;;;;;;26.73;39.58;99237.56;5074647;28;20383;-77
2023/10/21 13:20:56;;;;;;;;;;;;;;;26.76;40.22;99242.44;5073794;28;19917;-75
2023/10/21 13:23:21;;;;;;;;;;;;;;;26.76;39.12;99234.31;5073636;28;20292;-75